createdAt,value
2016-05-06T00:00:34.306Z,72.25
2016-05-06T00:01:34.339Z,72
2016-05-06T00:02:34.375Z,71.96
2016-05-06T00:03:34.425Z,71.87
2016-05-06T00:04:34.505Z,71.68
2016-05-06T00:05:34.507Z,72.63
2016-05-06T00:06:34.525Z,72.53
2016-05-06T00:07:34.574Z,72.92
2016-05-06T00:08:34.625Z,72.82
2016-05-06T00:09:34.658Z,72.53
2016-05-06T00:10:35.974Z,72.92
2016-05-06T00:11:34.726Z,72.34
2016-05-06T00:12:34.777Z,73.11
2016-05-06T00:13:34.810Z,73.3
2016-05-06T00:14:34.860Z,73.11
2016-05-06T00:15:34.737Z,73.39
2016-05-06T00:16:34.943Z,73.11
2016-05-06T00:17:34.976Z,73.58
2016-05-06T00:18:35.011Z,73.96
2016-05-06T00:19:34.920Z,73.68
2016-05-06T00:20:34.962Z,73.3
2016-05-06T00:21:35.122Z,73.01
2016-05-06T00:22:35.171Z,72.72
2016-05-06T00:23:35.221Z,73.3
2016-05-06T00:24:35.238Z,73.11
2016-05-06T00:25:35.288Z,73.11
2016-05-06T00:26:35.338Z,73.39
2016-05-06T00:27:35.357Z,73.58
2016-05-06T00:28:35.249Z,73.58
2016-05-06T00:29:35.299Z,73.68
2016-05-06T00:30:35.490Z,73.49
2016-05-06T00:31:35.382Z,73.39
2016-05-06T00:32:35.557Z,74.16
2016-05-06T00:33:35.607Z,73.96
2016-05-06T00:34:35.672Z,74.44
2016-05-06T00:35:35.691Z,74.21
2016-05-06T00:36:35.725Z,74.6
2016-05-06T00:37:35.773Z,73.65
2016-05-06T00:38:35.823Z,73.83
2016-05-06T00:39:35.842Z,74.4
2016-05-06T00:40:35.953Z,74.4
2016-05-06T00:41:35.769Z,74.21
2016-05-06T00:42:35.975Z,74.4
2016-05-06T00:43:36.009Z,74.6
2016-05-06T00:44:36.027Z,74.12
2016-05-06T00:45:36.108Z,74.5
2016-05-06T00:46:35.954Z,74.4
2016-05-06T00:47:36.160Z,74.31
2016-05-06T00:48:36.038Z,74.31
2016-05-06T00:49:36.260Z,74.21
2016-05-06T00:50:36.277Z,74.6
2016-05-06T00:51:36.311Z,74.4
2016-05-06T00:52:36.377Z,74.6
2016-05-06T00:53:36.396Z,74.31
2016-05-06T00:54:36.429Z,74.79
2016-05-06T00:55:36.854Z,74.98
2016-05-06T00:56:36.388Z,75.07
2016-05-06T00:57:36.562Z,74.79
2016-05-06T00:58:36.424Z,75.16
2016-05-06T00:59:36.661Z,74.98
2016-05-06T01:00:36.680Z,75.16
2016-05-06T01:01:36.713Z,75.16
2016-05-06T01:02:36.748Z,74.98
2016-05-06T01:03:36.781Z,75.16
2016-05-06T01:04:36.831Z,75.16
2016-05-06T01:05:36.865Z,74.6
2016-05-06T01:06:36.899Z,74.79
2016-05-06T01:07:36.948Z,74.5
2016-05-06T01:08:36.982Z,74.4
2016-05-06T01:09:37.032Z,74.69
2016-05-06T01:10:37.253Z,74.98
2016-05-06T01:11:37.115Z,74.31
2016-05-06T01:12:37.149Z,74.4
2016-05-06T01:13:37.168Z,74.4
2016-05-06T01:14:37.233Z,74.12
2016-05-06T01:15:37.267Z,74.4
2016-05-06T01:16:37.300Z,74.6
2016-05-06T01:17:37.350Z,74.98
2016-05-06T01:18:37.400Z,74.5
2016-05-06T01:19:37.419Z,74.88
2016-05-06T01:20:37.452Z,74.88
2016-05-06T01:21:37.501Z,74.88
2016-05-06T01:22:37.380Z,74.65
2016-05-06T01:23:37.569Z,75.26
2016-05-06T01:24:37.604Z,75.16
2016-05-06T01:25:37.512Z,74.98
2016-05-06T01:26:37.563Z,75.42
2016-05-06T01:27:37.565Z,75.74
2016-05-06T01:28:37.786Z,75.42
2016-05-06T01:29:37.820Z,75.93
2016-05-06T01:30:37.698Z,75.89
2016-05-06T01:31:37.888Z,76.27
2016-05-06T01:32:37.921Z,75.79
2016-05-06T01:33:37.971Z,75.99
2016-05-06T01:34:38.005Z,75.99
2016-05-06T01:35:38.040Z,75.99
2016-05-06T01:36:38.151Z,76.37
2016-05-06T01:37:38.122Z,75.79
2016-05-06T01:38:38.156Z,75.79
2016-05-06T01:39:38.207Z,76.37
2016-05-06T01:40:38.553Z,75.79
2016-05-06T01:41:38.274Z,75.79
2016-05-06T01:42:38.309Z,75.79
2016-05-06T01:43:38.405Z,76.37
2016-05-06T01:44:38.408Z,76.56
2016-05-06T01:45:38.441Z,76.56
2016-05-06T01:46:38.459Z,76.46
2016-05-06T01:47:38.541Z,76.27
2016-05-06T01:48:38.544Z,77.03
2016-05-06T01:49:38.592Z,76.46
2016-05-06T01:50:38.626Z,76.65
2016-05-06T01:51:38.520Z,76.94
2016-05-06T01:52:38.711Z,77.03
2016-05-06T01:53:38.744Z,77.42
2016-05-06T01:54:38.793Z,77.61
2016-05-06T01:55:38.688Z,77.7
2016-05-06T01:56:38.861Z,77.89
2016-05-06T01:57:38.896Z,77.89
2016-05-06T01:58:38.929Z,78.04
2016-05-06T01:59:38.979Z,77.95
2016-05-06T02:00:39.029Z,77.76
2016-05-06T02:01:39.046Z,78.04
2016-05-06T02:02:39.096Z,77.95
2016-05-06T02:03:39.114Z,77.7
2016-05-06T02:04:39.180Z,77.85
2016-05-06T02:05:39.214Z,77.66
2016-05-06T02:06:39.248Z,77.85
2016-05-06T02:07:39.281Z,77.85
2016-05-06T02:08:39.347Z,77.85
2016-05-06T02:09:39.209Z,78.04
2016-05-06T02:10:39.492Z,78.04
2016-05-06T02:11:39.433Z,77.76
2016-05-06T02:12:39.483Z,77.95
2016-05-06T02:13:39.501Z,77.85
2016-05-06T02:14:39.550Z,78.04
2016-05-06T02:15:39.631Z,78.23
2016-05-06T02:16:39.650Z,78.23
2016-05-06T02:17:39.668Z,77.85
2016-05-06T02:18:39.561Z,78.71
2016-05-06T02:19:39.595Z,78.61
2016-05-06T02:20:39.786Z,78.52
2016-05-06T02:21:39.819Z,78.04
2016-05-06T02:22:39.885Z,77.95
2016-05-06T02:23:39.906Z,77.95
2016-05-06T02:24:39.940Z,77.98
2016-05-06T02:25:39.818Z,78.04
2016-05-06T02:26:40.024Z,77.95
2016-05-06T02:27:40.058Z,78.17
2016-05-06T02:28:40.092Z,77.8
2016-05-06T02:29:40.141Z,77.98
2016-05-06T02:30:40.207Z,77.8
2016-05-06T02:31:40.209Z,78.08
2016-05-06T02:32:40.243Z,77.98
2016-05-06T02:33:40.292Z,77.89
2016-05-06T02:34:40.170Z,77.7
2016-05-06T02:35:40.377Z,78.08
2016-05-06T02:36:40.394Z,77.8
2016-05-06T02:37:40.289Z,78.08
2016-05-06T02:38:40.478Z,77.89
2016-05-06T02:39:40.513Z,78.08
2016-05-06T02:40:40.577Z,78.08
2016-05-06T02:41:40.610Z,77.89
2016-05-06T02:42:40.645Z,78.17
2016-05-06T02:43:40.680Z,77.98
2016-05-06T02:44:40.744Z,78.08
2016-05-06T02:45:40.746Z,77.89
2016-05-06T02:46:40.782Z,78.08
2016-05-06T02:47:40.830Z,77.98
2016-05-06T02:48:40.723Z,77.7
2016-05-06T02:49:40.914Z,77.51
2016-05-06T02:50:40.949Z,77.51
2016-05-06T02:51:40.998Z,77.8
2016-05-06T02:52:41.062Z,77.13
2016-05-06T02:53:41.066Z,77.19
2016-05-06T02:54:41.098Z,77.7
2016-05-06T02:55:40.993Z,77.22
2016-05-06T02:56:41.183Z,77.09
2016-05-06T02:57:41.217Z,77.09
2016-05-06T02:58:41.282Z,77
2016-05-06T02:59:41.301Z,77.37
2016-05-06T03:00:41.350Z,77.37
2016-05-06T03:01:41.383Z,77.47
2016-05-06T03:02:41.262Z,77.28
2016-05-06T03:03:41.452Z,77.28
2016-05-06T03:04:41.501Z,77.56
2016-05-06T03:05:41.363Z,77.28
2016-05-06T03:06:41.585Z,77.47
2016-05-06T03:07:41.603Z,77.09
2016-05-06T03:08:41.636Z,77.56
2016-05-06T03:09:41.686Z,77.56
2016-05-06T03:10:41.721Z,77.76
2016-05-06T03:11:41.755Z,77.66
2016-05-06T03:12:41.804Z,77.47
2016-05-06T03:13:41.854Z,77.66
2016-05-06T03:14:41.871Z,77.47
2016-05-06T03:15:41.922Z,77.76
2016-05-06T03:16:41.955Z,77.85
2016-05-06T03:17:42.021Z,77.81
2016-05-06T03:18:42.038Z,78.29
2016-05-06T03:19:42.073Z,77.62
2016-05-06T03:20:42.138Z,77.95
2016-05-06T03:21:42.140Z,77.81
2016-05-06T03:22:42.034Z,77.81
2016-05-06T03:23:42.224Z,77.91
2016-05-06T03:24:42.274Z,77.81
2016-05-06T03:25:42.307Z,78.48
2016-05-06T03:26:42.342Z,78.48
2016-05-06T03:27:42.220Z,78.29
2016-05-06T03:28:42.425Z,78.48
2016-05-06T03:29:42.443Z,78.67
2016-05-06T03:30:42.493Z,78.57
2016-05-06T03:31:42.527Z,78.77
2016-05-06T03:32:42.561Z,78.86
2016-05-06T03:33:42.611Z,79.05
2016-05-06T03:34:42.675Z,79.24
2016-05-06T03:35:42.694Z,79.05
2016-05-06T03:36:42.587Z,79.43
2016-05-06T03:37:42.762Z,78.57
2016-05-06T03:38:42.842Z,79.33
2016-05-06T03:39:42.830Z,79.43
2016-05-06T03:40:42.880Z,78.67
2016-05-06T03:41:42.926Z,79.05
2016-05-06T03:42:42.955Z,79.43
2016-05-06T03:43:42.978Z,79.43
2016-05-06T03:44:42.854Z,79.33
2016-05-06T03:45:42.888Z,79.33
2016-05-06T03:46:42.969Z,78.96
2016-05-06T03:47:43.128Z,78.67
2016-05-06T03:48:43.005Z,78.96
2016-05-06T03:49:43.196Z,79.43
2016-05-06T03:50:43.229Z,79.33
2016-05-06T03:51:43.294Z,79.43
2016-05-06T03:52:43.329Z,79.14
2016-05-06T03:53:43.378Z,79.43
2016-05-06T03:54:43.397Z,79.33
2016-05-06T03:55:43.274Z,79.43
2016-05-06T03:56:43.480Z,79.43
2016-05-06T03:57:43.529Z,79.14
2016-05-06T03:58:43.548Z,79.05
2016-05-06T03:59:43.582Z,78.96
2016-05-06T04:00:43.616Z,79.33
2016-05-06T04:01:43.525Z,80
2016-05-06T04:02:43.698Z,79.72
2016-05-06T04:03:43.749Z,79.43
2016-05-06T04:04:43.814Z,79.05
2016-05-06T04:05:43.800Z,79.43
2016-05-06T04:06:43.867Z,79.52
2016-05-06T04:07:43.776Z,78.96
2016-05-06T04:08:43.950Z,79.05
2016-05-06T04:09:43.967Z,79.24
2016-05-06T04:10:44.003Z,79.05
2016-05-06T04:11:44.035Z,79.24
2016-05-06T04:12:43.945Z,79.05
2016-05-06T04:13:44.119Z,78.86
2016-05-06T04:14:44.153Z,79.05
2016-05-06T04:15:44.219Z,79.33
2016-05-06T04:16:44.236Z,79.14
2016-05-06T04:17:44.130Z,78.67
2016-05-06T04:18:44.320Z,78.96
2016-05-06T04:19:44.355Z,78.96
2016-05-06T04:20:44.232Z,79.05
2016-05-06T04:21:44.407Z,78.77
2016-05-06T04:22:44.456Z,79.14
2016-05-06T04:23:44.505Z,79.14
2016-05-06T04:24:44.540Z,78.67
2016-05-06T04:25:44.714Z,78.67
2016-05-06T04:26:44.623Z,78.57
2016-05-06T04:27:44.641Z,78.38
2016-05-06T04:28:44.691Z,78.67
2016-05-06T04:29:44.725Z,78.1
2016-05-06T04:30:44.806Z,78.19
2016-05-06T04:31:44.793Z,78.29
2016-05-06T04:32:44.843Z,78.38
2016-05-06T04:33:44.876Z,78
2016-05-06T04:34:44.770Z,78.29
2016-05-06T04:35:44.960Z,78.19
2016-05-06T04:36:44.837Z,78.29
2016-05-06T04:37:45.059Z,78.29
2016-05-06T04:38:45.061Z,77.91
2016-05-06T04:39:45.111Z,78.33
2016-05-06T04:40:45.255Z,78.33
2016-05-06T04:41:45.211Z,78.04
2016-05-06T04:42:45.213Z,78.42
2016-05-06T04:43:45.278Z,78.52
2016-05-06T04:44:45.312Z,78.52
2016-05-06T04:45:45.361Z,78.52
2016-05-06T04:46:45.364Z,78.04
2016-05-06T04:47:45.258Z,78.23
2016-05-06T04:48:45.464Z,78.71
2016-05-06T04:49:45.497Z,78.9
2016-05-06T04:50:45.532Z,78.8
2016-05-06T04:51:45.565Z,78.52
2016-05-06T04:52:45.630Z,78.99
2016-05-06T04:53:45.649Z,79.38
2016-05-06T04:54:45.683Z,79.28
2016-05-06T04:55:45.920Z,79.19
2016-05-06T04:56:45.782Z,79.47
2016-05-06T04:57:45.801Z,79.75
2016-05-06T04:58:45.834Z,79.09
2016-05-06T04:59:45.868Z,79.41
2016-05-06T05:00:45.917Z,79.41
2016-05-06T05:01:45.952Z,79.51
2016-05-06T05:02:46.001Z,79.7
2016-05-06T05:03:46.050Z,79.6
2016-05-06T05:04:46.070Z,78.75
2016-05-06T05:05:45.947Z,79.32
2016-05-06T05:06:45.996Z,79.41
2016-05-06T05:07:46.202Z,78.94
2016-05-06T05:08:46.221Z,79.22
2016-05-06T05:09:46.270Z,78.75
2016-05-06T05:10:46.921Z,79.03
2016-05-06T05:11:46.439Z,78.85
2016-05-06T05:12:46.504Z,78.56
2016-05-06T05:13:46.570Z,78.22
2016-05-06T05:14:46.667Z,78.59
2016-05-06T05:15:46.749Z,78.31
2016-05-06T05:16:46.784Z,78.41
2016-05-06T05:17:46.851Z,78.59
2016-05-06T05:18:46.948Z,78.59
2016-05-06T05:19:46.967Z,78.59
2016-05-06T05:20:47.014Z,77.83
2016-05-06T05:21:47.070Z,78.12
2016-05-06T05:22:47.141Z,78.03
2016-05-06T05:23:47.149Z,78.31
2016-05-06T05:24:47.190Z,77.93
2016-05-06T05:25:47.868Z,77.83
2016-05-06T05:26:47.296Z,78.12
2016-05-06T05:27:47.316Z,77.93
2016-05-06T05:28:47.369Z,78.03
2016-05-06T05:29:47.435Z,77.78
2016-05-06T05:30:47.455Z,77.93
2016-05-06T05:31:47.474Z,77.87
2016-05-06T05:32:47.509Z,77.59
2016-05-06T05:33:47.559Z,77.87
2016-05-06T05:34:47.609Z,77.3
2016-05-06T05:35:47.645Z,77.78
2016-05-06T05:36:47.693Z,77.59
2016-05-06T05:37:47.713Z,77.78
2016-05-06T05:38:47.763Z,77.4
2016-05-06T05:39:47.641Z,77.4
2016-05-06T05:40:48.128Z,77.2
2016-05-06T05:41:47.897Z,77.59
2016-05-06T05:42:47.915Z,77.11
2016-05-06T05:43:47.996Z,77.4
2016-05-06T05:44:47.999Z,77.78
2016-05-06T05:45:48.048Z,77.59
2016-05-06T05:46:48.066Z,77.3
2016-05-06T05:47:48.147Z,77.11
2016-05-06T05:48:48.150Z,77.3
2016-05-06T05:49:48.199Z,77.3
2016-05-06T05:50:48.233Z,76.92
2016-05-06T05:51:48.298Z,76.57
2016-05-06T05:52:48.160Z,76.96
2016-05-06T05:53:48.351Z,76.77
2016-05-06T05:54:48.385Z,76.77
2016-05-06T05:55:48.278Z,76.77
2016-05-06T05:56:48.468Z,76.77
2016-05-06T05:57:48.502Z,76.67
2016-05-06T05:58:48.567Z,76.57
2016-05-06T05:59:48.570Z,76.86
2016-05-06T06:00:48.620Z,76.77
2016-05-06T06:01:48.653Z,75.91
2016-05-06T06:02:48.734Z,76.1
2016-05-06T06:03:48.737Z,76.39
2016-05-06T06:04:48.614Z,76.48
2016-05-06T06:05:48.820Z,76.2
2016-05-06T06:06:48.730Z,76.1
2016-05-06T06:07:48.904Z,75.72
2016-05-06T06:08:48.781Z,76.1
2016-05-06T06:09:49.003Z,75.91
2016-05-06T06:10:49.583Z,75.72
2016-05-06T06:11:49.039Z,75.76
2016-05-06T06:12:49.105Z,75.37
2016-05-06T06:13:49.139Z,75.28
2016-05-06T06:14:49.189Z,75.09
2016-05-06T06:15:49.207Z,75.18
2016-05-06T06:16:49.287Z,75.37
2016-05-06T06:17:49.306Z,74.8
2016-05-06T06:18:49.340Z,74.9
2016-05-06T06:19:49.374Z,74.71
2016-05-06T06:20:49.424Z,74.42
2016-05-06T06:21:49.457Z,74.23
2016-05-06T06:22:49.335Z,73.85
2016-05-06T06:23:49.556Z,73.08
2016-05-06T06:24:49.591Z,73.18
2016-05-06T06:25:49.624Z,73.47
2016-05-06T06:26:49.659Z,73.32
2016-05-06T06:27:49.739Z,72.74
2016-05-06T06:28:49.742Z,72.83
2016-05-06T06:29:49.759Z,72.74
2016-05-06T06:30:49.857Z,72.26
2016-05-06T06:31:49.875Z,72.17
2016-05-06T06:32:49.736Z,72.17
2016-05-06T06:33:49.771Z,71.98
2016-05-06T06:34:49.820Z,71.78
2016-05-06T06:35:50.010Z,71.78
2016-05-06T06:36:50.045Z,71.59
2016-05-06T06:37:50.109Z,70.73
2016-05-06T06:38:50.175Z,70.39
2016-05-06T06:39:50.178Z,68.86
2016-05-06T06:40:50.211Z,68.73
2016-05-06T06:41:50.261Z,69.11
2016-05-06T06:42:50.310Z,69.05
2016-05-06T06:43:50.344Z,67.62
2016-05-06T06:44:50.378Z,66.28
2016-05-06T06:45:50.413Z,65.14
2016-05-06T06:46:50.463Z,65.33
2016-05-06T06:47:50.340Z,65.14
2016-05-06T06:48:50.561Z,64.94
2016-05-06T06:49:50.423Z,64.28
2016-05-06T06:50:50.613Z,64.18
2016-05-06T06:51:50.663Z,63.99
2016-05-06T06:52:50.541Z,63.8
2016-05-06T06:53:50.746Z,63.89
2016-05-06T06:54:50.780Z,62.65
2016-05-06T06:55:50.829Z,62.78
2016-05-06T06:56:50.864Z,63.16
2016-05-06T06:57:50.913Z,63.07
2016-05-06T06:58:50.947Z,62.68
2016-05-06T06:59:50.982Z,62.21
2016-05-06T07:00:50.906Z,62.01
2016-05-06T07:01:51.065Z,62.3
2016-05-06T07:02:51.115Z,62.01
2016-05-06T07:03:51.179Z,62.01
2016-05-06T07:04:51.197Z,62.3
2016-05-06T07:05:51.216Z,62.11
2016-05-06T07:06:51.281Z,62.49
2016-05-06T07:07:51.347Z,61.63
2016-05-06T07:08:51.349Z,61.09
2016-05-06T07:09:51.400Z,60.71
2016-05-06T07:10:51.480Z,60.71
2016-05-06T07:11:51.466Z,60.87
2016-05-06T07:12:51.516Z,60.13
2016-05-06T07:13:51.597Z,59.94
2016-05-06T07:14:51.615Z,60.04
2016-05-06T07:15:51.649Z,59.47
2016-05-06T07:16:51.511Z,59.84
2016-05-06T07:17:51.749Z,60.23
2016-05-06T07:18:51.752Z,60.13
2016-05-06T07:19:51.801Z,60.13
2016-05-06T07:20:51.835Z,60.04
2016-05-06T07:21:51.931Z,58.98
2016-05-06T07:22:51.954Z,59.18
2016-05-06T07:23:51.801Z,58.25
2016-05-06T07:24:52.006Z,58.06
2016-05-06T07:25:52.056Z,57.77
2016-05-06T07:26:51.934Z,57.58
2016-05-06T07:27:52.124Z,57.87
2016-05-06T07:28:52.173Z,58.25
2016-05-06T07:29:52.223Z,57.68
2016-05-06T07:30:52.257Z,57.29
2016-05-06T07:31:52.292Z,57.48
2016-05-06T07:32:52.357Z,57.2
2016-05-06T07:33:52.375Z,57.39
2016-05-06T07:34:52.252Z,57.58
2016-05-06T07:35:52.458Z,57.48
2016-05-06T07:36:52.508Z,57.48
2016-05-06T07:37:52.541Z,57.39
2016-05-06T07:38:52.606Z,57.23
2016-05-06T07:39:52.469Z,56.94
2016-05-06T07:40:52.659Z,57.42
2016-05-06T07:41:52.708Z,56.94
2016-05-06T07:42:52.602Z,56.56
2016-05-06T07:43:52.792Z,56.75
2016-05-06T07:44:52.826Z,56.65
2016-05-06T07:45:52.750Z,56.75
2016-05-06T07:46:52.910Z,56.75
2016-05-06T07:47:52.802Z,56.84
2016-05-06T07:48:53.009Z,56.87
2016-05-06T07:49:53.043Z,56.87
2016-05-06T07:50:53.076Z,57.26
2016-05-06T07:51:53.126Z,56.59
2016-05-06T07:52:53.160Z,56.77
2016-05-06T07:53:53.240Z,56.68
2016-05-06T07:54:53.103Z,56.2
2016-05-06T07:55:53.387Z,56.2
2016-05-06T07:56:53.359Z,56.1
2016-05-06T07:57:53.376Z,56.3
2016-05-06T07:58:53.427Z,56.2
2016-05-06T07:59:53.460Z,56.1
2016-05-06T08:00:53.509Z,55.91
2016-05-06T08:01:53.543Z,55.63
2016-05-06T08:02:53.609Z,55.44
2016-05-06T08:03:53.642Z,54.7
2016-05-06T08:04:53.661Z,54.32
2016-05-06T08:05:53.726Z,54.67
2016-05-06T08:06:53.761Z,54.67
2016-05-06T08:07:53.809Z,54.99
2016-05-06T08:08:53.844Z,54.7
2016-05-06T08:09:53.878Z,55.08
2016-05-06T08:10:53.942Z,55.18
2016-05-06T08:11:54.508Z,55.36
2016-05-06T08:12:53.994Z,54.99
2016-05-06T08:13:54.045Z,55.36
2016-05-06T08:14:54.094Z,55.18
2016-05-06T08:15:54.128Z,53.93
2016-05-06T08:16:54.021Z,54.03
2016-05-06T08:17:54.211Z,53.83
2016-05-06T08:18:54.277Z,54.22
2016-05-06T08:19:54.310Z,53.26
2016-05-06T08:20:54.344Z,53.58
2016-05-06T08:21:54.426Z,53.77
2016-05-06T08:22:54.429Z,54.24
2016-05-06T08:23:54.462Z,53.86
2016-05-06T08:24:54.543Z,52.71
2016-05-06T08:25:54.593Z,52.33
2016-05-06T08:26:54.595Z,52.62
2016-05-06T08:27:54.645Z,52.91
2016-05-06T08:28:54.679Z,52.91
2016-05-06T08:29:54.728Z,52.91
2016-05-06T08:30:54.762Z,52.71
2016-05-06T08:31:54.812Z,53
2016-05-06T08:32:54.690Z,51.85
2016-05-06T08:33:54.895Z,51.95
2016-05-06T08:34:54.945Z,52.23
2016-05-06T08:35:54.964Z,51.85
2016-05-06T08:36:55.028Z,51.1
2016-05-06T08:37:55.062Z,50.63
2016-05-06T08:38:54.955Z,50.73
2016-05-06T08:39:55.162Z,50.63
2016-05-06T08:40:55.570Z,50.63
2016-05-06T08:41:55.073Z,50.73
2016-05-06T08:42:55.278Z,50.53
2016-05-06T08:43:55.313Z,51.01
2016-05-06T08:44:55.363Z,51.01
2016-05-06T08:45:55.396Z,50.82
2016-05-06T08:46:55.321Z,51.59
2016-05-06T08:47:55.480Z,51.4
2016-05-06T08:48:55.529Z,50.94
2016-05-06T08:49:55.563Z,50.75
2016-05-06T08:50:55.629Z,50.75
2016-05-06T08:51:55.662Z,50.56
2016-05-06T08:52:55.713Z,50.46
2016-05-06T08:53:55.746Z,50.46
2016-05-06T08:54:55.796Z,50.37
2016-05-06T08:55:55.673Z,50.56
2016-05-06T08:56:55.879Z,50.17
2016-05-06T08:57:55.929Z,48.35
2016-05-06T08:58:55.963Z,48.54
2016-05-06T08:59:55.996Z,48.83
2016-05-06T09:00:55.890Z,48.66
2016-05-06T09:01:56.111Z,48.76
2016-05-06T09:02:56.130Z,48.66
2016-05-06T09:03:56.007Z,48.85
2016-05-06T09:04:56.213Z,49.05
2016-05-06T09:05:56.262Z,48.66
2016-05-06T09:06:56.140Z,48.18
2016-05-06T09:07:56.330Z,48.57
2016-05-06T09:08:56.223Z,47.89
2016-05-06T09:09:56.273Z,47.89
2016-05-06T09:10:56.479Z,47.61
2016-05-06T09:11:56.373Z,46.65
2016-05-06T09:12:56.594Z,46.36
2016-05-06T09:13:56.644Z,46.07
2016-05-06T09:14:56.489Z,44.75
2016-05-06T09:15:56.727Z,45.14
2016-05-06T09:16:56.574Z,45.81
2016-05-06T09:17:56.764Z,45.61
2016-05-06T09:18:56.813Z,46
2016-05-06T09:19:56.863Z,45.71
2016-05-06T09:20:56.896Z,44.94
2016-05-06T09:21:56.931Z,44.56
2016-05-06T09:22:56.980Z,43.5
2016-05-06T09:23:57.029Z,43.5
2016-05-06T09:24:57.080Z,42.83
2016-05-06T09:25:57.130Z,42.93
2016-05-06T09:26:57.007Z,42.93
2016-05-06T09:27:57.072Z,42.44
2016-05-06T09:28:57.246Z,41.87
2016-05-06T09:29:57.312Z,41.58
2016-05-06T09:30:57.173Z,41.87
2016-05-06T09:31:57.395Z,41.87
2016-05-06T09:32:57.413Z,42.06
2016-05-06T09:33:57.495Z,41.96
2016-05-06T09:34:57.513Z,41.99
2016-05-06T09:35:57.546Z,42.47
2016-05-06T09:36:57.596Z,41.79
2016-05-06T09:37:57.662Z,41.79
2016-05-06T09:38:57.679Z,41.79
2016-05-06T09:39:57.729Z,41.89
2016-05-06T09:40:58.498Z,40.64
2016-05-06T09:41:57.844Z,40.25
2016-05-06T09:42:57.690Z,39.2
2016-05-06T09:43:57.897Z,39.61
2016-05-06T09:44:58.275Z,39.97
2016-05-06T09:45:57.980Z,40.45
2016-05-06T09:46:58.030Z,39.89
2016-05-06T09:47:58.064Z,40.66
2016-05-06T09:48:58.113Z,39.51
2016-05-06T09:49:58.162Z,39.61
2016-05-06T09:50:58.197Z,39.31
2016-05-06T09:51:58.246Z,39.41
2016-05-06T09:52:58.327Z,39.31
2016-05-06T09:53:58.345Z,39.31
2016-05-06T09:54:58.379Z,39.62
2016-05-06T09:55:58.475Z,39.43
2016-05-06T09:56:58.463Z,39.62
2016-05-06T09:57:58.496Z,39.53
2016-05-06T09:58:58.546Z,38.66
2016-05-06T09:59:58.579Z,37.89
2016-05-06T10:00:58.661Z,37.6
2016-05-06T10:01:58.679Z,38.09
2016-05-06T10:02:58.728Z,38.28
2016-05-06T10:03:58.794Z,38.47
2016-05-06T10:04:58.671Z,38.29
2016-05-06T10:05:58.861Z,38.2
2016-05-06T10:06:58.927Z,38.68
2016-05-06T10:07:58.961Z,38.97
2016-05-06T10:08:58.995Z,38.39
2016-05-06T10:09:59.029Z,38.31
2016-05-06T10:10:59.109Z,37.83
2016-05-06T10:11:58.987Z,37.83
2016-05-06T10:12:59.178Z,37.83
2016-05-06T10:13:59.228Z,37.76
2016-05-06T10:14:59.276Z,37.56
2016-05-06T10:15:59.342Z,37.56
2016-05-06T10:16:59.375Z,37.85
2016-05-06T10:17:59.425Z,37.76
2016-05-06T10:18:59.475Z,37.19
2016-05-06T10:19:59.524Z,37.01
2016-05-06T10:20:59.575Z,36.25
2016-05-06T10:21:59.639Z,34.8
2016-05-06T10:22:59.548Z,35.98
2016-05-06T10:23:59.738Z,34.72
2016-05-06T10:24:59.787Z,34.74
2016-05-06T10:25:59.838Z,33.52
2016-05-06T10:26:59.902Z,32.57
2016-05-06T10:27:59.952Z,31.34
2016-05-06T10:29:00.018Z,29.26
2016-05-06T10:30:00.082Z,27.75
2016-05-06T10:31:00.116Z,26.23
2016-05-06T10:32:00.229Z,23.56
2016-05-06T10:33:00.232Z,20.66
2016-05-06T10:34:00.296Z,19.02
2016-05-06T10:35:00.346Z,17.86
2016-05-06T10:36:00.411Z,17.19
2016-05-06T10:37:00.476Z,15.54
2016-05-06T10:38:00.401Z,15.26
2016-05-06T10:39:00.622Z,14.09
2016-05-06T10:40:00.640Z,14.3
2016-05-06T10:41:00.690Z,13.14
2016-05-06T10:42:00.803Z,12.36
2016-05-06T10:43:00.820Z,12.77
2016-05-06T10:44:00.886Z,12.29
2016-05-06T10:45:00.779Z,12.01
2016-05-06T10:46:00.984Z,10.35
2016-05-06T10:47:01.066Z,9.18
2016-05-06T10:48:01.147Z,9.09
2016-05-06T10:49:01.180Z,8.89
2016-05-06T10:50:01.231Z,9.2
2016-05-06T10:51:01.295Z,7.92
2016-05-06T10:52:01.391Z,7.04
2016-05-06T10:53:01.410Z,6.94
2016-05-06T10:54:01.460Z,6.95
2016-05-06T10:55:01.541Z,5.66
2016-05-06T10:56:01.591Z,4.97
2016-05-06T10:57:03.139Z,4.86
2016-05-06T10:58:01.705Z,5.26
2016-05-06T10:59:01.801Z,5.16
2016-05-06T11:00:01.852Z,4.96
2016-05-06T11:01:01.899Z,5.26
2016-05-06T11:02:02.013Z,5.46
2016-05-06T11:03:02.015Z,4.66
2016-05-06T11:04:02.080Z,4.77
2016-05-06T11:05:02.129Z,4.47
2016-05-06T11:06:02.210Z,4.57
2016-05-06T11:07:02.260Z,4.17
2016-05-06T11:08:02.326Z,4.67
2016-05-06T11:09:02.421Z,4.38
2016-05-06T11:10:02.440Z,4.08
2016-05-06T11:11:02.521Z,3.28
2016-05-06T11:12:02.618Z,2.98
2016-05-06T11:13:02.651Z,3.68
2016-05-06T11:14:02.685Z,4.08
2016-05-06T11:15:02.767Z,3.58
2016-05-06T11:16:02.815Z,3.58
2016-05-06T11:17:02.881Z,4.26
2016-05-06T11:18:02.775Z,4.95
2016-05-06T11:19:03.027Z,5.63
2016-05-06T11:20:02.905Z,5.83
2016-05-06T11:21:03.158Z,6.71
2016-05-06T11:22:03.207Z,6.52
2016-05-06T11:23:03.256Z,6.82
2016-05-06T11:24:03.165Z,6.23
2016-05-06T11:25:03.434Z,6.15
2016-05-06T11:26:03.499Z,5.55
2016-05-06T11:27:03.517Z,4.96
2016-05-06T11:28:03.567Z,4.38
2016-05-06T11:29:03.507Z,3.58
2016-05-06T11:30:03.697Z,2.59
2016-05-06T11:31:03.622Z,2.48
2016-05-06T11:32:03.671Z,2.48
2016-05-06T11:33:03.893Z,1.59
2016-05-06T11:34:03.786Z,2.28
2016-05-06T11:35:04.023Z,2.78
2016-05-06T11:36:04.089Z,2.87
2016-05-06T11:37:04.154Z,2.87
2016-05-06T11:38:04.062Z,3.47
2016-05-06T11:39:04.300Z,3.76
2016-05-06T11:40:04.334Z,4.26
2016-05-06T11:41:04.430Z,4.66
2016-05-06T11:42:04.479Z,4.06
2016-05-06T11:43:04.513Z,3.67
2016-05-06T11:44:04.891Z,3.17
2016-05-06T11:45:04.659Z,2.48
2016-05-06T11:46:04.568Z,2.67
2016-05-06T11:47:04.634Z,3.07
2016-05-06T11:48:04.886Z,2.77
2016-05-06T11:49:04.904Z,3.36
2016-05-06T11:50:04.970Z,3.36
2016-05-06T11:51:05.051Z,3.46
2016-05-06T11:52:05.131Z,3.66
2016-05-06T11:53:05.165Z,3.56
2016-05-06T11:54:05.231Z,3.65
2016-05-06T11:55:05.311Z,3.95
2016-05-06T11:56:05.361Z,4.54
2016-05-06T11:57:05.425Z,4.54
2016-05-06T11:58:05.539Z,5.23
2016-05-06T11:59:06.072Z,4.64
2016-05-06T12:00:05.605Z,4.25
2016-05-06T12:01:05.672Z,3.27
2016-05-06T12:02:05.736Z,3.46
2016-05-06T12:03:05.802Z,4.15
2016-05-06T12:04:05.866Z,4.25
2016-05-06T12:05:05.948Z,4.54
2016-05-06T12:06:05.997Z,4.64
2016-05-06T12:07:06.062Z,4.64
2016-05-06T12:08:06.144Z,5.03
2016-05-06T12:09:06.021Z,5.32
2016-05-06T12:10:06.243Z,5.02
2016-05-06T12:11:07.854Z,5.71
2016-05-06T12:12:07.966Z,5.51
2016-05-06T12:13:06.438Z,5.71
2016-05-06T12:14:06.346Z,6.01
2016-05-06T12:15:06.568Z,5.81
2016-05-06T12:16:06.617Z,6.01
2016-05-06T12:17:06.684Z,5.8
2016-05-06T12:18:06.592Z,6.69
2016-05-06T12:19:06.814Z,6.79
2016-05-06T12:20:06.879Z,6.68
2016-05-06T12:21:06.944Z,6.88
2016-05-06T12:22:07.009Z,6.98
2016-05-06T12:23:07.059Z,6.79
2016-05-06T12:24:07.123Z,6.1
2016-05-06T12:25:07.189Z,6.01
2016-05-06T12:26:07.114Z,6.21
2016-05-06T12:27:07.320Z,4.93
2016-05-06T12:28:07.416Z,5.23
2016-05-06T12:29:07.433Z,5.72
2016-05-06T12:30:07.500Z,5.82
2016-05-06T12:31:07.564Z,5.52
2016-05-06T12:32:07.630Z,4.54
2016-05-06T12:33:07.680Z,4.24
2016-05-06T12:34:07.744Z,4.44
2016-05-06T12:35:07.825Z,5.33
2016-05-06T12:36:07.874Z,4.93
2016-05-06T12:37:07.941Z,4.83
2016-05-06T12:38:08.005Z,5.22
2016-05-06T12:39:08.054Z,5.51
2016-05-06T12:40:08.136Z,5.71
2016-05-06T12:41:08.216Z,5.62
2016-05-06T12:42:08.250Z,5.72
2016-05-06T12:43:08.160Z,4.83
2016-05-06T12:44:08.365Z,4.54
2016-05-06T12:45:08.446Z,4.35
2016-05-06T12:46:08.495Z,4.45
2016-05-06T12:47:08.560Z,3.85
2016-05-06T12:48:08.470Z,3.85
2016-05-06T12:49:08.535Z,3.85
2016-05-06T12:50:08.757Z,3.46
2016-05-06T12:51:08.837Z,3.16
2016-05-06T12:52:08.871Z,3.36
2016-05-06T12:53:08.951Z,4.05
2016-05-06T12:54:09.017Z,4.14
2016-05-06T12:55:09.067Z,3.55
2016-05-06T12:56:09.131Z,3.45
2016-05-06T12:57:09.197Z,4.05
2016-05-06T12:58:09.294Z,3.65
2016-05-06T12:59:09.156Z,3.55
2016-05-06T13:00:09.377Z,3.75